createdAt,value
2017-08-08T00:01:38.463Z,5.97
2017-08-08T00:04:07.162Z,5.90
2017-08-08T00:06:36.268Z,5.93
2017-08-08T00:09:10.133Z,7.20
2017-08-08T00:11:42.823Z,5.37
2017-08-08T00:14:12.893Z,5.10
2017-08-08T00:16:40.474Z,5.50
2017-08-08T00:19:16.526Z,5.60
2017-08-08T00:21:50.313Z,5.50
2017-08-08T00:24:18.163Z,6.00
2017-08-08T00:26:47.527Z,5.15
2017-08-08T00:29:15.875Z,5.15
2017-08-08T00:31:43.911Z,9.50
2017-08-08T00:34:12.469Z,5.65
2017-08-08T00:36:46.437Z,6.15
2017-08-08T00:39:14.322Z,6.12
2017-08-08T00:41:43.840Z,5.62
2017-08-08T00:44:11.802Z,6.43
2017-08-08T00:46:40.048Z,6.32
2017-08-08T00:49:14.745Z,5.97
2017-08-08T00:51:48.590Z,5.30
2017-08-08T00:54:22.256Z,5.40
2017-08-08T00:56:50.406Z,5.12
2017-08-08T00:59:24.825Z,5.65
2017-08-08T01:01:59.387Z,5.03
2017-08-08T01:04:28.832Z,5.22
2017-08-08T01:09:43.079Z,6.50
2017-08-08T01:12:11.478Z,4.65
2017-08-08T01:17:21.581Z,5.35
2017-08-08T01:19:56.490Z,5.75
2017-08-08T01:22:25.654Z,5.45
2017-08-08T01:24:56.861Z,5.60
2017-08-08T01:27:24.448Z,5.25
2017-08-08T01:29:52.812Z,5.37
2017-08-08T01:32:20.467Z,5.35
2017-08-08T01:34:48.726Z,5.12
2017-08-08T01:37:19.598Z,5.62
2017-08-08T01:39:52.906Z,5.28
2017-08-08T01:44:58.862Z,5.68
2017-08-08T01:47:29.595Z,6.18
2017-08-08T01:50:00.332Z,6.68
2017-08-08T01:52:28.728Z,5.82
2017-08-08T01:54:56.352Z,5.40
2017-08-08T01:57:23.963Z,5.78
2017-08-08T01:59:54.253Z,5.07
2017-08-08T02:02:22.277Z,5.80
2017-08-08T02:04:51.289Z,5.53
2017-08-08T02:07:18.845Z,5.30
2017-08-08T02:09:46.475Z,5.78
2017-08-08T02:12:14.049Z,5.80
2017-08-08T02:14:41.608Z,5.15
2017-08-08T02:17:09.150Z,6.30
2017-08-08T02:19:36.704Z,5.78
2017-08-08T02:22:04.363Z,6.03
2017-08-08T02:24:32.101Z,6.07
2017-08-08T02:27:00.429Z,5.57
2017-08-08T02:29:28.004Z,6.05
2017-08-08T02:31:56.326Z,5.40
2017-08-08T02:34:24.623Z,5.70
2017-08-08T02:36:52.939Z,4.97
2017-08-08T02:39:20.462Z,5.93
2017-08-08T02:41:48.823Z,5.10
2017-08-08T02:44:16.377Z,5.28
2017-08-08T02:46:43.943Z,5.57
2017-08-08T02:49:11.475Z,5.12
2017-08-08T02:51:39.065Z,5.18
2017-08-08T02:54:06.616Z,6.12
2017-08-08T02:56:34.193Z,6.12
2017-08-08T02:59:01.777Z,6.05
2017-08-08T03:01:29.367Z,6.57
2017-08-08T03:03:57.674Z,4.87
2017-08-08T03:06:25.197Z,6.00
2017-08-08T03:08:52.749Z,6.05
2017-08-08T03:11:20.289Z,6.20
2017-08-08T03:13:47.894Z,6.80
2017-08-08T03:16:15.416Z,6.15
2017-08-08T03:18:42.980Z,6.30
2017-08-08T03:21:10.531Z,5.90
2017-08-08T03:23:38.105Z,6.45
2017-08-08T03:26:05.642Z,6.07
2017-08-08T03:28:33.201Z,5.43
2017-08-08T03:31:00.775Z,6.25
2017-08-08T03:33:28.327Z,6.15
2017-08-08T03:35:56.658Z,6.32
2017-08-08T03:38:25.057Z,5.70
2017-08-08T03:40:52.590Z,5.47
2017-08-08T03:43:20.122Z,5.65
2017-08-08T03:45:47.674Z,6.53
2017-08-08T03:48:16.002Z,5.65
2017-08-08T03:50:43.568Z,5.55
2017-08-08T03:53:11.101Z,5.87
2017-08-08T03:55:39.416Z,6.75
2017-08-08T03:58:06.963Z,6.47
2017-08-08T04:00:34.504Z,6.68
2017-08-08T04:03:02.831Z,5.78
2017-08-08T04:05:30.414Z,5.28
2017-08-08T04:07:57.931Z,6.03
2017-08-08T04:10:25.514Z,5.93
2017-08-08T04:12:53.054Z,6.60
2017-08-08T04:15:20.649Z,6.00
2017-08-08T04:17:48.175Z,5.95
2017-08-08T04:20:15.729Z,5.82
2017-08-08T04:22:44.052Z,6.60
2017-08-08T04:25:11.586Z,5.87
2017-08-08T04:27:39.921Z,4.95
2017-08-08T04:30:07.454Z,5.82
2017-08-08T04:32:35.011Z,5.60
2017-08-08T04:35:02.535Z,5.57
2017-08-08T04:37:30.094Z,5.93
2017-08-08T04:39:57.630Z,5.43
2017-08-08T04:42:25.186Z,5.47
2017-08-08T04:44:52.729Z,5.87
2017-08-08T04:47:21.016Z,6.90
2017-08-08T04:49:48.571Z,5.30
2017-08-08T04:52:16.861Z,6.05
2017-08-08T04:54:44.405Z,5.20
2017-08-08T04:57:12.733Z,5.93
2017-08-08T04:59:40.287Z,7.03
2017-08-08T05:02:07.834Z,6.35
2017-08-08T05:04:36.183Z,5.12
2017-08-08T05:07:03.781Z,5.40
2017-08-08T05:09:31.489Z,5.45
2017-08-08T05:11:59.039Z,5.53
2017-08-08T05:14:26.594Z,5.82
2017-08-08T05:16:54.205Z,4.40
2017-08-08T05:19:21.763Z,5.23
2017-08-08T05:21:49.324Z,5.10
2017-08-08T05:24:16.905Z,5.27
2017-08-08T05:26:44.489Z,5.03
2017-08-08T05:29:12.872Z,10.70
2017-08-08T05:31:40.493Z,5.60
2017-08-08T05:34:08.047Z,3.97
2017-08-08T05:36:35.609Z,4.20
2017-08-08T05:39:03.148Z,4.40
2017-08-08T05:41:31.462Z,5.47
2017-08-08T05:43:58.997Z,5.10
2017-08-08T05:46:26.561Z,6.23
2017-08-08T05:48:54.885Z,4.93
2017-08-08T05:51:22.416Z,4.90
2017-08-08T05:53:49.964Z,5.33
2017-08-08T05:56:18.257Z,6.50
2017-08-08T05:58:45.817Z,7.50
2017-08-08T06:01:14.104Z,6.70
2017-08-08T06:03:41.650Z,5.53
2017-08-08T06:06:10.049Z,7.83
2017-08-08T06:08:37.617Z,5.97
2017-08-08T06:11:05.171Z,7.90
2017-08-08T06:13:32.731Z,5.27
2017-08-08T06:16:01.034Z,4.63
2017-08-08T06:18:28.622Z,5.10
2017-08-08T06:20:56.138Z,7.27
2017-08-08T06:23:24.051Z,4.90
2017-08-08T06:25:51.602Z,6.50
2017-08-08T06:28:19.138Z,6.20
2017-08-08T06:30:47.445Z,6.93
2017-08-08T06:33:14.961Z,4.50
2017-08-08T06:35:42.541Z,5.67
2017-08-08T06:38:10.082Z,4.43
2017-08-08T06:40:37.634Z,5.60
2017-08-08T06:43:05.165Z,5.20
2017-08-08T06:45:32.721Z,4.50
2017-08-08T06:48:01.032Z,4.23
2017-08-08T06:50:28.973Z,3.90
2017-08-08T06:52:57.267Z,4.30
2017-08-08T06:55:24.861Z,4.37
2017-08-08T06:57:52.400Z,4.37
2017-08-08T07:00:19.991Z,4.80
2017-08-08T07:02:47.535Z,4.10
2017-08-08T07:05:15.082Z,4.77
2017-08-08T07:07:43.413Z,4.67
2017-08-08T07:10:11.701Z,5.27
2017-08-08T07:12:39.257Z,4.80
2017-08-08T07:15:06.790Z,5.50
2017-08-08T07:17:34.400Z,4.80
2017-08-08T07:20:01.946Z,4.83
2017-08-08T07:22:29.549Z,5.77
2017-08-08T07:24:57.087Z,4.90
2017-08-08T07:27:24.645Z,4.77
2017-08-08T07:29:52.179Z,5.63
2017-08-08T07:32:19.925Z,4.70
2017-08-08T07:34:48.274Z,5.20
2017-08-08T07:37:15.830Z,5.90
2017-08-08T07:39:43.417Z,6.23
2017-08-08T07:42:10.965Z,4.80
2017-08-08T07:44:38.526Z,4.70
2017-08-08T07:47:06.062Z,5.93
2017-08-08T07:49:33.619Z,6.23
2017-08-08T07:52:01.158Z,5.07
2017-08-08T07:54:29.489Z,5.57
2017-08-08T07:56:57.029Z,4.77
2017-08-08T07:59:24.596Z,5.60
2017-08-08T08:01:52.125Z,5.13
2017-08-08T08:04:19.695Z,4.93
2017-08-08T08:06:47.250Z,5.40
2017-08-08T08:09:14.790Z,5.30
2017-08-08T08:11:42.353Z,5.10
2017-08-08T08:14:09.881Z,5.17
2017-08-08T08:16:37.439Z,5.33
2017-08-08T08:19:05.929Z,5.10
2017-08-08T08:21:34.245Z,5.30
2017-08-08T08:24:01.785Z,6.03
2017-08-08T08:26:29.333Z,4.80
2017-08-08T08:28:57.626Z,4.77
2017-08-08T08:31:25.188Z,4.40
2017-08-08T08:33:53.480Z,5.70
2017-08-08T08:36:21.056Z,4.93
2017-08-08T08:38:48.596Z,5.47
2017-08-08T08:41:16.952Z,5.17
2017-08-08T08:43:45.294Z,4.83
2017-08-08T08:46:12.805Z,5.20
2017-08-08T08:48:40.372Z,4.80
2017-08-08T08:51:07.910Z,4.90
2017-08-08T08:53:35.472Z,4.70
2017-08-08T08:56:03.321Z,4.40
2017-08-08T08:58:30.875Z,4.67
2017-08-08T09:00:58.426Z,5.50
2017-08-08T09:03:26.770Z,5.20
2017-08-08T09:05:54.306Z,5.20
2017-08-08T09:08:21.869Z,6.20
2017-08-08T09:10:49.396Z,4.40
2017-08-08T09:13:17.690Z,5.13
2017-08-08T09:15:45.237Z,4.70
2017-08-08T09:18:12.795Z,5.10
2017-08-08T09:20:41.224Z,4.93
2017-08-08T09:23:08.787Z,4.90
2017-08-08T09:25:36.399Z,4.23
2017-08-08T09:28:04.713Z,5.40
2017-08-08T09:30:32.284Z,5.33
2017-08-08T09:32:59.845Z,5.20
2017-08-08T09:35:27.406Z,4.40
2017-08-08T09:37:54.986Z,4.70
2017-08-08T09:40:23.643Z,4.80
2017-08-08T09:42:51.988Z,5.27
2017-08-08T09:45:20.251Z,4.30
2017-08-08T09:47:48.554Z,4.63
2017-08-08T09:50:16.089Z,4.70
2017-08-08T09:52:43.660Z,6.27
2017-08-08T09:55:11.354Z,9.00
2017-08-08T09:57:38.926Z,5.80
2017-08-08T10:00:06.493Z,4.90
2017-08-08T10:02:34.064Z,4.63
2017-08-08T10:05:01.622Z,5.57
2017-08-08T10:07:29.467Z,4.93
2017-08-08T10:09:57.063Z,4.80
2017-08-08T10:12:24.946Z,6.80
2017-08-08T10:14:53.302Z,4.77
2017-08-08T10:17:20.892Z,4.80
2017-08-08T10:19:48.492Z,4.80
2017-08-08T10:22:16.030Z,4.90
2017-08-08T10:24:44.374Z,4.50
2017-08-08T10:27:11.915Z,5.17
2017-08-08T10:29:39.497Z,4.33
2017-08-08T10:32:07.551Z,5.63
2017-08-08T10:34:35.234Z,4.60
2017-08-08T10:37:02.792Z,6.17
2017-08-08T10:39:30.351Z,4.10
2017-08-08T10:41:57.900Z,4.23
2017-08-08T10:44:26.194Z,4.40
2017-08-08T10:46:53.756Z,4.33
2017-08-08T10:49:21.320Z,4.30
2017-08-08T10:51:48.893Z,4.43
2017-08-08T10:54:16.433Z,4.10
2017-08-08T10:56:44.782Z,4.10
2017-08-08T10:59:12.325Z,4.17
2017-08-08T11:01:40.513Z,4.60
2017-08-08T11:04:08.110Z,4.77
2017-08-08T11:06:35.705Z,4.17
2017-08-08T11:09:03.246Z,4.40
2017-08-08T11:11:31.578Z,4.03
2017-08-08T11:13:59.128Z,5.30
2017-08-08T11:16:26.705Z,5.13
2017-08-08T11:18:54.269Z,4.50
2017-08-08T11:21:21.818Z,4.27
2017-08-08T11:23:49.382Z,4.37
2017-08-08T11:26:16.900Z,4.00
2017-08-08T11:28:44.463Z,3.87
2017-08-08T11:31:12.098Z,5.13
2017-08-08T11:33:39.674Z,3.33
2017-08-08T11:36:07.221Z,5.90
2017-08-08T11:38:34.816Z,3.80
2017-08-08T11:41:02.338Z,3.93
2017-08-08T11:43:29.959Z,4.30
2017-08-08T11:45:58.403Z,3.90
2017-08-08T11:48:25.962Z,3.50
2017-08-08T11:50:53.859Z,3.77
2017-08-08T11:53:21.404Z,4.00
2017-08-08T11:55:48.975Z,4.03
2017-08-08T11:58:16.502Z,4.30
2017-08-08T12:00:44.073Z,4.57
2017-08-08T12:03:11.621Z,3.73
2017-08-08T12:05:39.990Z,3.67
2017-08-08T12:08:08.328Z,3.93
2017-08-08T12:10:35.891Z,3.50
2017-08-08T12:13:03.423Z,3.30
2017-08-08T12:15:30.978Z,3.70
2017-08-08T12:17:59.303Z,4.50
2017-08-08T12:20:26.924Z,4.10
2017-08-08T12:22:55.275Z,4.63
2017-08-08T12:25:22.829Z,4.27
2017-08-08T12:27:50.795Z,3.00
2017-08-08T12:30:18.345Z,3.10
2017-08-08T12:32:45.970Z,4.40
2017-08-08T12:35:13.517Z,5.37
2017-08-08T12:37:41.112Z,3.43
2017-08-08T12:40:09.418Z,3.63
2017-08-08T12:42:36.972Z,4.33
2017-08-08T12:45:04.560Z,3.23
2017-08-08T12:47:32.132Z,3.50
2017-08-08T12:49:59.699Z,3.40
2017-08-08T12:52:27.547Z,4.47
2017-08-08T12:54:55.099Z,3.57
2017-08-08T12:57:24.234Z,3.53
2017-08-08T12:59:51.808Z,3.83
2017-08-08T13:02:19.346Z,3.63
2017-08-08T13:04:46.914Z,4.20
2017-08-08T13:07:14.458Z,3.60
2017-08-08T13:09:42.893Z,3.37
2017-08-08T13:12:10.437Z,3.67
2017-08-08T13:14:38.009Z,3.57
2017-08-08T13:17:05.573Z,3.03
2017-08-08T13:19:33.955Z,3.90
2017-08-08T13:22:01.506Z,3.90
2017-08-08T13:24:29.068Z,3.80
2017-08-08T13:26:56.667Z,3.70
2017-08-08T13:29:24.209Z,4.87
2017-08-08T13:31:51.792Z,3.20
2017-08-08T13:34:19.358Z,3.70
2017-08-08T13:36:47.155Z,3.77
2017-08-08T13:39:14.694Z,3.83
2017-08-08T13:41:42.260Z,3.73
2017-08-08T13:44:09.805Z,3.70
2017-08-08T13:46:37.386Z,4.40
2017-08-08T13:49:06.059Z,3.37
2017-08-08T13:51:33.625Z,3.80
2017-08-08T13:54:01.202Z,3.40
2017-08-08T13:56:30.496Z,3.20
2017-08-08T13:58:58.061Z,6.10
2017-08-08T14:01:25.596Z,3.27
2017-08-08T14:03:53.188Z,4.40
2017-08-08T14:06:21.082Z,4.00
2017-08-08T14:08:48.638Z,5.10
2017-08-08T14:11:16.200Z,3.63
2017-08-08T14:13:43.785Z,4.60
2017-08-08T14:16:11.433Z,3.47
2017-08-08T14:18:39.006Z,3.30
2017-08-08T14:21:06.533Z,3.40
2017-08-08T14:23:34.114Z,2.90
2017-08-08T14:26:01.641Z,3.67
2017-08-08T14:28:29.977Z,3.70
2017-08-08T14:30:57.499Z,3.40
2017-08-08T14:33:25.045Z,3.00
2017-08-08T14:35:53.375Z,3.60
2017-08-08T14:38:20.919Z,3.50
2017-08-08T14:40:50.710Z,3.27
2017-08-08T14:43:19.027Z,3.40
2017-08-08T14:45:46.601Z,3.40
2017-08-08T14:48:14.163Z,3.70
2017-08-08T14:50:41.831Z,4.27
2017-08-08T14:53:09.392Z,3.90
2017-08-08T14:55:37.064Z,3.90
2017-08-08T14:58:04.609Z,3.33
2017-08-08T15:00:35.625Z,3.60
2017-08-08T15:03:03.203Z,3.57
2017-08-08T15:05:30.787Z,3.73
2017-08-08T15:07:58.603Z,4.10
2017-08-08T15:10:26.171Z,3.83
2017-08-08T15:12:55.850Z,4.20
2017-08-08T15:15:23.387Z,4.17
2017-08-08T15:17:51.210Z,3.77
2017-08-08T15:20:19.774Z,5.67
2017-08-08T15:22:47.332Z,4.27
2017-08-08T15:25:15.611Z,4.50
2017-08-08T15:27:44.189Z,4.20
2017-08-08T15:30:11.718Z,4.67
2017-08-08T15:32:39.282Z,5.67
2017-08-08T15:35:07.591Z,5.20
2017-08-08T15:37:35.159Z,5.47
2017-08-08T15:40:03.332Z,5.13
2017-08-08T15:42:30.881Z,4.63
2017-08-08T15:44:59.205Z,7.33
2017-08-08T15:47:26.790Z,7.90
2017-08-08T15:49:54.355Z,5.33
2017-08-08T15:52:21.887Z,4.87
2017-08-08T15:54:49.453Z,5.10
2017-08-08T15:57:16.990Z,8.53
2017-08-08T16:02:22.104Z,5.23
2017-08-08T16:04:50.667Z,7.40
2017-08-08T16:07:18.223Z,4.40
2017-08-08T16:09:45.788Z,6.53
2017-08-08T16:12:13.358Z,4.83
2017-08-08T16:14:40.891Z,5.13
2017-08-08T16:17:09.189Z,5.77
2017-08-08T16:19:36.741Z,10.07
2017-08-08T16:22:05.082Z,5.70
2017-08-08T16:24:32.634Z,4.77
2017-08-08T16:27:00.705Z,6.73
2017-08-08T16:29:28.230Z,6.20
2017-08-08T16:31:56.543Z,7.43
2017-08-08T16:34:24.097Z,6.00
2017-08-08T16:36:51.647Z,4.93
2017-08-08T16:39:21.529Z,5.47
2017-08-08T16:41:49.461Z,5.40
2017-08-08T16:44:17.030Z,7.07
2017-08-08T16:46:45.328Z,4.60
2017-08-08T16:49:12.975Z,3.57
2017-08-08T16:51:40.702Z,3.73
2017-08-08T16:54:08.269Z,3.90
2017-08-08T16:56:36.725Z,3.77
2017-08-08T16:59:04.303Z,4.33
2017-08-08T17:01:32.782Z,4.70
2017-08-08T17:04:00.341Z,5.00
2017-08-08T17:06:27.860Z,3.77
2017-08-08T17:08:55.435Z,7.90
2017-08-08T17:11:22.980Z,6.07
2017-08-08T17:13:50.581Z,3.10
2017-08-08T17:16:18.208Z,4.17
2017-08-08T17:18:45.836Z,5.07
2017-08-08T17:21:13.563Z,5.37
2017-08-08T17:23:42.031Z,6.10
2017-08-08T17:26:09.657Z,6.87
2017-08-08T17:28:37.293Z,9.33
2017-08-08T17:31:05.814Z,5.47
2017-08-08T17:33:34.442Z,11.00
2017-08-08T17:36:02.114Z,5.90
2017-08-08T17:38:29.675Z,6.23
2017-08-08T17:40:57.313Z,6.97
2017-08-08T17:43:24.939Z,6.10
2017-08-08T17:45:53.320Z,5.83
2017-08-08T17:48:20.921Z,8.27
2017-08-08T17:50:48.496Z,6.67
2017-08-08T17:53:16.064Z,6.30
2017-08-08T17:55:44.385Z,6.40
2017-08-08T17:58:12.016Z,6.10
2017-08-08T18:00:40.351Z,5.80
2017-08-08T18:03:08.029Z,5.10
2017-08-08T18:05:36.427Z,5.53
2017-08-08T18:08:04.879Z,6.33
2017-08-08T18:10:34.171Z,5.07
2017-08-08T18:13:02.933Z,5.00
2017-08-08T18:15:30.547Z,5.37
2017-08-08T18:17:58.139Z,6.47
2017-08-08T18:20:25.683Z,5.27
2017-08-08T18:22:53.395Z,8.27
2017-08-08T18:25:21.883Z,6.60
2017-08-08T18:27:49.428Z,5.73
2017-08-08T18:30:17.163Z,5.33
2017-08-08T18:32:45.583Z,5.83
2017-08-08T18:35:13.136Z,8.03
2017-08-08T18:37:41.841Z,9.10
2017-08-08T18:40:09.381Z,5.30
2017-08-08T18:42:36.918Z,4.93
2017-08-08T18:45:04.484Z,5.00
2017-08-08T18:47:32.084Z,3.60
2017-08-08T18:49:59.650Z,4.23
2017-08-08T18:52:27.206Z,3.57
2017-08-08T18:54:54.813Z,3.63
2017-08-08T18:57:22.358Z,3.20
2017-08-08T18:59:49.900Z,3.10
2017-08-08T19:02:17.468Z,2.80
2017-08-08T19:04:46.091Z,2.33
2017-08-08T19:07:14.409Z,2.60
2017-08-08T19:09:41.990Z,2.80
2017-08-08T19:12:09.582Z,2.50
2017-08-08T19:14:38.832Z,2.63
2017-08-08T19:17:06.396Z,2.53
2017-08-08T19:19:33.940Z,1.80
2017-08-08T19:22:01.513Z,3.10
2017-08-08T19:24:29.832Z,1.73
2017-08-08T19:26:57.377Z,1.80
2017-08-08T19:29:24.942Z,1.33
2017-08-08T19:31:52.514Z,1.87
2017-08-08T19:34:20.080Z,2.17
2017-08-08T19:36:47.629Z,1.80
2017-08-08T19:39:17.425Z,2.00
2017-08-08T19:41:44.977Z,4.23
2017-08-08T19:44:13.181Z,1.73
2017-08-08T19:46:40.735Z,1.63
2017-08-08T19:49:09.402Z,1.40
2017-08-08T19:51:40.117Z,2.80
2017-08-08T19:54:15.627Z,1.53
2017-08-08T19:56:43.319Z,1.92
2017-08-08T19:59:11.172Z,2.20
2017-08-08T20:01:42.986Z,0.97
2017-08-08T20:04:11.151Z,3.62
2017-08-08T20:06:40.643Z,1.87
2017-08-08T20:09:14.675Z,2.23
2017-08-08T20:11:45.809Z,1.73
2017-08-08T20:14:25.992Z,1.20
2017-08-08T20:16:53.563Z,2.50
2017-08-08T20:19:22.267Z,1.80
2017-08-08T20:21:49.906Z,1.53
2017-08-08T20:24:18.465Z,1.73
2017-08-08T20:26:50.154Z,1.60
2017-08-08T20:29:21.363Z,1.20
2017-08-08T20:31:49.694Z,2.07
2017-08-08T20:34:17.283Z,2.77
2017-08-08T20:36:44.864Z,2.77
2017-08-08T20:39:13.253Z,2.20
2017-08-08T20:41:41.561Z,1.63
2017-08-08T20:44:09.914Z,1.63
2017-08-08T20:46:39.462Z,1.40
2017-08-08T20:49:07.995Z,1.73
2017-08-08T20:51:37.054Z,1.07
2017-08-08T20:54:04.781Z,1.87
2017-08-08T20:56:33.195Z,2.95
2017-08-08T20:59:00.756Z,1.20
2017-08-08T21:01:28.580Z,1.67
2017-08-08T21:03:56.167Z,1.15
2017-08-08T21:06:25.623Z,2.45
2017-08-08T21:08:56.963Z,1.70
2017-08-08T21:11:27.481Z,1.23
2017-08-08T21:13:55.521Z,1.12
2017-08-08T21:16:24.770Z,2.67
2017-08-08T21:18:52.521Z,1.08
2017-08-08T21:21:21.841Z,1.70
2017-08-08T21:23:49.785Z,2.97
2017-08-08T21:26:17.452Z,1.58
2017-08-08T21:28:46.647Z,1.40
2017-08-08T21:31:14.993Z,1.30
2017-08-08T21:33:42.706Z,1.87
2017-08-08T21:36:10.702Z,1.27
2017-08-08T21:38:38.292Z,1.50
2017-08-08T21:41:08.997Z,2.00
2017-08-08T21:43:37.446Z,1.83
2017-08-08T21:46:05.232Z,1.97
2017-08-08T21:51:07.649Z,2.33
2017-08-08T21:53:36.816Z,2.10
2017-08-08T21:56:10.902Z,1.65
2017-08-08T21:58:46.194Z,1.40
2017-08-08T22:01:13.740Z,1.60
2017-08-08T22:03:41.284Z,1.58
2017-08-08T22:06:08.875Z,2.58
2017-08-08T22:08:36.435Z,1.67
2017-08-08T22:11:06.989Z,1.60
2017-08-08T22:13:34.590Z,1.87
2017-08-08T22:16:03.034Z,2.65
2017-08-08T22:18:31.827Z,2.92
2017-08-08T22:20:59.424Z,3.58
2017-08-08T22:23:27.735Z,2.85
2017-08-08T22:25:55.301Z,2.87
2017-08-08T22:28:22.851Z,4.40
2017-08-08T22:30:51.186Z,2.90
2017-08-08T22:33:19.611Z,3.28
2017-08-08T22:35:54.680Z,2.67
2017-08-08T22:38:22.569Z,2.45
2017-08-08T22:40:51.830Z,3.00
2017-08-08T22:43:19.376Z,3.28
2017-08-08T22:45:46.956Z,3.00
2017-08-08T22:48:14.510Z,2.47
2017-08-08T22:50:42.246Z,3.53
2017-08-08T22:53:09.800Z,4.60
2017-08-08T22:55:37.351Z,2.60
2017-08-08T22:58:04.911Z,3.17
2017-08-08T23:00:32.453Z,2.50
2017-08-08T23:03:00.302Z,2.33
2017-08-08T23:05:27.925Z,2.05
2017-08-08T23:07:55.484Z,2.40
2017-08-08T23:10:23.027Z,4.03
2017-08-08T23:12:50.600Z,3.00
2017-08-08T23:15:18.125Z,2.87
2017-08-08T23:17:45.696Z,3.30
2017-08-08T23:20:13.232Z,3.33
2017-08-08T23:22:40.789Z,4.95
2017-08-08T23:25:08.328Z,4.20
2017-08-08T23:27:35.878Z,4.78
2017-08-08T23:30:04.216Z,4.55
2017-08-08T23:32:31.772Z,3.55
2017-08-08T23:34:59.321Z,3.65
2017-08-08T23:37:32.555Z,4.30
2017-08-08T23:40:00.120Z,4.68
2017-08-08T23:42:27.716Z,4.72
2017-08-08T23:44:56.061Z,4.60
2017-08-08T23:47:23.595Z,4.47
2017-08-08T23:49:51.156Z,4.70
2017-08-08T23:52:18.680Z,4.30
2017-08-08T23:54:46.228Z,4.20
2017-08-08T23:57:13.801Z,4.30
2017-08-08T23:59:41.345Z,4.47
